Accueil
METAR-TAF:

METAR-TAF

Aéroports :

Exeter, Angleterre

Aéroport international d'Exeter

latitude: 50-44N, longitude: 003-25W, altitude: 30 m

Observation

Le bulletin a été fait il y a 17 minutes, à 09:20 UTC
Vent 2 kt de direction variable
Température 16°C
Humidité 72%
Pression 1023 hPa
Visibilité 10 km ou plus
pas de nuages en-dessous de 1500 mètres et pas de cumulonimbus.

METAR: EGTE 190920Z VRB02KT CAVOK 16/11 Q1023

Heure: 10:37 (09:37 UTC)

Prévision

Le bulletin a été fait il y a 1 heure et 34 minutes, à 08:03 UTC
Prévision valable du 19 à 09 UTC au 19 à 18 UTC
Vent 6 kt de nord-ouest
Visibilité 10 km ou plus
pas de nuages en-dessous de 1500 mètres et pas de cumulonimbus.

TAF: EGTE 190803Z 1909/1918 31006KT CAVOK

Observations et prévisions météorologiques de plus de 4000 aéroports (messages METAR et TAF).

Les stations disponibles sont représentées par des disques jaunes et rouges sur la carte.

Passer la souris dessus pour voir le nom de la station.

Cliquer dessus pour voir les observations et prévisions météorologiques.

Pour changer de carte: cliquez sur les boutons verts avec une croix noire pour zoomer, sur le bouton vert avec un tiret pour effectuer un zoom arrière, ou sur les flèches vertes pour les cartes adjacentes.


METAR-TAF: